Weather at Taiwan Taoyuan International Airport

Public forecast

Using degrees Celsius for public forecast. Weather courtesy of forecast.io.

Current aviation weather report (METAR) for Taiwan Taoyuan International Airport

Retrieved 2021/12/09 06:30 UTC (33 minutes ago):

RCTP 090630Z 03012KT 9999 FEW020 BKN040 BKN060 22/18 Q1020 NOSIG RMK A3014

Aviation forecast (TAF) for Taiwan Taoyuan International Airport

Retrieved 2021/12/09 06:00 UTC (1 hour ago):

TAF RCTP 090500Z 0906/1012 04018KT 9999 FEW015 BKN032 BECMG 0910/0912 07012KT BECMG 1000/1002 04018KT